createdAt,value
2018-04-23T00:00:01.114Z,5.10
2018-04-23T00:05:29.306Z,4.87
2018-04-23T00:10:57.492Z,5.10
2018-04-23T00:16:26.459Z,5.03
2018-04-23T00:21:54.625Z,4.57
2018-04-23T00:27:23.711Z,4.57
2018-04-23T00:32:52.604Z,4.40
2018-04-23T00:38:20.749Z,4.40
2018-04-23T00:43:49.661Z,4.27
2018-04-23T00:49:18.080Z,5.00
2018-04-23T00:54:46.230Z,4.87
2018-04-23T01:00:14.380Z,4.60
2018-04-23T01:05:42.557Z,5.20
2018-04-23T01:11:10.713Z,5.13
2018-04-23T01:16:38.872Z,5.60
2018-04-23T01:22:07.021Z,4.70
2018-04-23T01:27:35.175Z,4.37
2018-04-23T01:33:03.309Z,5.03
2018-04-23T01:38:31.470Z,5.00
2018-04-23T01:43:59.652Z,4.70
2018-04-23T01:49:27.796Z,4.63
2018-04-23T01:54:55.953Z,4.53
2018-04-23T02:00:24.103Z,5.53
2018-04-23T02:05:54.269Z,5.13
2018-04-23T02:11:22.530Z,5.17
2018-04-23T02:16:50.694Z,5.00
2018-04-23T02:22:21.599Z,5.07
2018-04-23T02:27:55.328Z,5.03
2018-04-23T02:33:24.275Z,4.93
2018-04-23T02:38:52.878Z,4.97
2018-04-23T02:44:21.035Z,5.13
2018-04-23T02:49:49.168Z,4.77
2018-04-23T02:55:17.356Z,5.53
2018-04-23T03:00:45.497Z,4.60
2018-04-23T03:06:13.636Z,5.03
2018-04-23T03:11:41.777Z,6.00
2018-04-23T03:17:09.946Z,4.63
2018-04-23T03:22:38.121Z,5.30
2018-04-23T03:28:06.268Z,4.83
2018-04-23T03:33:36.172Z,5.23
2018-04-23T03:39:05.301Z,6.20
2018-04-23T03:44:33.435Z,4.97
2018-04-23T03:50:01.591Z,4.60
2018-04-23T03:55:29.744Z,5.00
2018-04-23T04:00:58.721Z,5.10
2018-04-23T04:06:27.840Z,5.07
2018-04-23T04:11:56.984Z,4.97
2018-04-23T04:23:59.529Z,5.93
2018-04-23T04:29:27.701Z,4.93
2018-04-23T04:34:56.921Z,4.93
2018-04-23T04:40:25.867Z,5.40
2018-04-23T04:45:56.875Z,6.07
2018-04-23T04:51:25.602Z,5.27
2018-04-23T04:56:54.827Z,4.90
2018-04-23T05:02:23.785Z,5.13
2018-04-23T05:07:51.930Z,4.73
2018-04-23T05:13:20.084Z,4.53
2018-04-23T05:18:48.221Z,5.27
2018-04-23T05:24:17.136Z,4.80
2018-04-23T05:29:45.298Z,5.40
2018-04-23T05:35:13.470Z,4.83
2018-04-23T05:40:41.618Z,4.90
2018-04-23T05:46:10.521Z,5.50
2018-04-23T05:51:38.675Z,5.20
2018-04-23T05:57:07.581Z,4.90
2018-04-23T06:02:35.721Z,5.10
2018-04-23T06:08:04.659Z,5.03
2018-04-23T06:13:33.595Z,4.47
2018-04-23T06:19:01.761Z,4.60
2018-04-23T06:24:29.915Z,4.23
2018-04-23T06:29:58.149Z,4.60
2018-04-23T06:35:27.113Z,4.33
2018-04-23T06:40:55.412Z,3.83
2018-04-23T06:46:24.342Z,3.80
2018-04-23T06:51:52.487Z,4.03
2018-04-23T06:57:21.398Z,4.13
2018-04-23T07:02:49.575Z,3.60
2018-04-23T07:08:17.708Z,3.87
2018-04-23T07:13:45.850Z,3.90
2018-04-23T07:19:13.992Z,5.07
2018-04-23T07:24:42.136Z,4.97
2018-04-23T07:30:10.288Z,3.83
2018-04-23T07:35:38.450Z,3.70
2018-04-23T07:41:06.646Z,3.27
2018-04-23T07:46:34.805Z,4.00
2018-04-23T07:52:03.739Z,3.50
2018-04-23T07:57:32.682Z,3.97
2018-04-23T08:03:01.601Z,3.83
2018-04-23T08:08:29.766Z,4.00
2018-04-23T08:13:57.954Z,3.67
2018-04-23T08:19:26.932Z,3.90
2018-04-23T08:24:55.126Z,3.20
2018-04-23T08:30:24.041Z,3.40
2018-04-23T08:35:52.186Z,3.20
2018-04-23T08:41:20.351Z,3.30
2018-04-23T08:46:48.496Z,3.50
2018-04-23T08:52:16.653Z,3.30
2018-04-23T08:57:44.807Z,3.07
2018-04-23T09:03:13.010Z,3.10
2018-04-23T09:08:41.157Z,3.60
2018-04-23T09:14:09.308Z,3.23
2018-04-23T09:19:38.264Z,2.90
2018-04-23T09:25:06.415Z,3.80
2018-04-23T09:30:34.618Z,3.23
2018-04-23T09:36:02.768Z,3.07
2018-04-23T09:41:30.950Z,3.53
2018-04-23T09:46:59.112Z,3.57
2018-04-23T09:52:27.303Z,2.87
2018-04-23T09:57:55.480Z,2.97
2018-04-23T10:03:25.381Z,2.90
2018-04-23T10:08:53.526Z,3.37
2018-04-23T10:14:21.688Z,3.00
2018-04-23T10:19:50.597Z,2.60
2018-04-23T10:25:18.746Z,3.50
2018-04-23T10:30:47.673Z,3.60
2018-04-23T10:36:15.808Z,3.13
2018-04-23T10:41:44.722Z,2.83
2018-04-23T10:47:12.879Z,3.00
2018-04-23T10:52:41.037Z,3.40
2018-04-23T10:58:09.177Z,3.53
2018-04-23T11:03:37.326Z,3.20
2018-04-23T11:09:07.148Z,3.67
2018-04-23T11:14:35.405Z,3.77
2018-04-23T11:20:03.596Z,3.43
2018-04-23T11:25:31.807Z,4.20
2018-04-23T11:30:59.975Z,3.20
2018-04-23T11:36:28.174Z,3.50
2018-04-23T11:41:57.118Z,3.90
2018-04-23T11:47:27.066Z,3.53
2018-04-23T11:52:55.235Z,3.53
2018-04-23T11:58:24.157Z,3.50
2018-04-23T12:03:52.359Z,3.93
2018-04-23T12:09:21.290Z,4.23
2018-04-23T12:14:50.440Z,3.53
2018-04-23T12:20:19.383Z,4.37
2018-04-23T12:25:48.292Z,3.80
2018-04-23T12:31:16.490Z,4.60
2018-04-23T12:36:44.657Z,4.40
2018-04-23T12:42:13.638Z,4.57
2018-04-23T12:47:42.798Z,4.23
2018-04-23T12:53:11.008Z,4.07
2018-04-23T12:58:39.348Z,4.00
2018-04-23T13:04:07.657Z,4.23
2018-04-23T13:09:36.784Z,3.90
2018-04-23T13:15:05.132Z,4.00
2018-04-23T13:20:33.350Z,5.00
2018-04-23T13:26:01.491Z,4.20
2018-04-23T13:31:29.776Z,4.07
2018-04-23T13:36:58.814Z,3.97
2018-04-23T13:42:27.007Z,4.93
2018-04-23T13:47:59.533Z,5.07
2018-04-23T13:53:27.689Z,5.40
2018-04-23T13:58:55.859Z,6.03
2018-04-23T14:04:24.788Z,5.90
2018-04-23T14:09:52.992Z,5.03
2018-04-23T14:15:21.143Z,6.37
2018-04-23T14:20:50.089Z,8.07
2018-04-23T14:26:18.249Z,6.97
2018-04-23T14:31:47.182Z,7.33
2018-04-23T14:37:15.327Z,5.73
2018-04-23T14:42:43.472Z,4.23
2018-04-23T14:48:12.444Z,4.63
2018-04-23T14:53:40.584Z,4.47
2018-04-23T14:59:08.755Z,3.80
2018-04-23T15:04:37.672Z,4.03
2018-04-23T15:10:05.842Z,3.87
2018-04-23T15:15:33.977Z,4.33
2018-04-23T15:21:02.162Z,4.33
2018-04-23T15:26:41.044Z,3.77
2018-04-23T15:32:13.580Z,3.00
2018-04-23T15:37:41.747Z,3.40
2018-04-23T15:43:09.962Z,3.70
2018-04-23T15:48:38.125Z,3.03
2018-04-23T15:54:06.314Z,3.80
2018-04-23T15:59:34.474Z,3.47
2018-04-23T16:05:03.137Z,3.43
2018-04-23T16:10:31.286Z,3.00
2018-04-23T16:15:59.461Z,4.13
2018-04-23T16:21:27.637Z,4.47
2018-04-23T16:26:56.568Z,3.70
2018-04-23T16:32:25.517Z,3.83
2018-04-23T16:37:54.435Z,3.77
2018-04-23T16:43:22.621Z,3.67
2018-04-23T16:48:50.768Z,3.10
2018-04-23T16:54:18.930Z,3.17
2018-04-23T16:59:47.081Z,3.97
2018-04-23T17:05:15.333Z,4.00
2018-04-23T17:10:43.744Z,2.80
2018-04-23T17:16:12.090Z,3.83
2018-04-23T17:21:41.994Z,3.60
2018-04-23T17:27:10.142Z,3.70
2018-04-23T17:32:38.291Z,3.97
2018-04-23T17:38:06.452Z,3.97
2018-04-23T17:43:34.601Z,3.10
2018-04-23T17:49:02.754Z,4.17
2018-04-23T17:54:30.964Z,3.20
2018-04-23T17:59:59.129Z,3.70
2018-04-23T18:05:27.268Z,6.43
2018-04-23T18:10:55.430Z,3.30
2018-04-23T18:16:23.584Z,2.80
2018-04-23T18:21:51.770Z,3.30
2018-04-23T18:27:20.688Z,4.77
2018-04-23T18:32:48.844Z,3.77
2018-04-23T18:38:17.780Z,3.83
2018-04-23T18:43:45.953Z,3.93
2018-04-23T18:49:14.109Z,3.90
2018-04-23T18:54:43.962Z,4.07
2018-04-23T19:00:12.120Z,3.87
2018-04-23T19:05:44.077Z,4.40
2018-04-23T19:11:12.261Z,4.23
2018-04-23T19:16:40.395Z,4.07
2018-04-23T19:22:08.547Z,4.87
2018-04-23T19:27:36.802Z,4.50
2018-04-23T19:33:04.961Z,5.20
2018-04-23T19:38:33.137Z,3.87
2018-04-23T19:44:02.084Z,3.63
2018-04-23T19:49:31.045Z,4.03
2018-04-23T19:54:59.200Z,3.90
2018-04-23T20:00:27.418Z,3.80
2018-04-23T20:05:55.552Z,4.10
2018-04-23T20:11:25.472Z,4.17
2018-04-23T20:16:53.622Z,3.90
2018-04-23T20:22:21.776Z,4.70
2018-04-23T20:27:50.912Z,4.40
2018-04-23T20:33:19.854Z,5.33
2018-04-23T20:38:48.003Z,3.70
2018-04-23T20:44:16.244Z,4.07
2018-04-23T20:49:45.114Z,5.27
2018-04-23T20:55:15.089Z,4.80
2018-04-23T21:00:44.283Z,4.43
2018-04-23T21:06:12.601Z,5.00
2018-04-23T21:11:40.766Z,3.90
2018-04-23T21:17:08.991Z,4.32
2018-04-23T21:22:37.901Z,3.60
2018-04-23T21:28:07.992Z,4.13
2018-04-23T21:33:36.933Z,4.40
2018-04-23T21:39:06.712Z,4.13
2018-04-23T21:44:35.047Z,4.10
2018-04-23T21:50:03.242Z,4.70
2018-04-23T21:55:32.201Z,5.33
2018-04-23T22:01:01.334Z,5.60
2018-04-23T22:06:29.516Z,5.20
2018-04-23T22:11:57.695Z,5.40
2018-04-23T22:17:25.883Z,5.40
2018-04-23T22:22:54.809Z,7.00
2018-04-23T22:28:36.072Z,5.80
2018-04-23T22:34:04.221Z,6.90
2018-04-23T22:39:32.405Z,6.47
2018-04-23T22:45:00.568Z,6.13
2018-04-23T22:50:28.845Z,6.00
2018-04-23T22:55:57.028Z,7.00
2018-04-23T23:01:25.938Z,6.60
2018-04-23T23:06:54.075Z,6.13
2018-04-23T23:12:22.257Z,4.90
2018-04-23T23:17:50.383Z,5.60
2018-04-23T23:23:18.536Z,4.60
2018-04-23T23:28:46.690Z,6.00
2018-04-23T23:34:14.841Z,4.97
2018-04-23T23:39:42.971Z,5.30
2018-04-23T23:45:11.133Z,6.30
2018-04-23T23:50:40.064Z,5.70
2018-04-23T23:56:08.205Z,6.07
